Map

Track Data

SID SEASON NUMBER BASIN SUBBASIN NAME ISO_TIME NATURE LAT LON WMO_WIND WMO_PRES WMO_AGENCY TRACK_TYPE DIST2LAND LANDFALL IFLAG USA_AGENCY USA_ATCF_ID USA_LAT USA_LON USA_RECORD USA_STATUS USA_WIND USA_PRES USA_SSHS USA_R34_NE USA_R34_SE USA_R34_SW USA_R34_NW USA_R50_NE USA_R50_SE USA_R50_SW USA_R50_NW USA_R64_NE USA_R64_SE USA_R64_SW USA_R64_NW USA_POCI USA_ROCI USA_RMW USA_EYE TOKYO_LAT TOKYO_LON TOKYO_GRADE TOKYO_WIND TOKYO_PRES TOKYO_R50_DIR TOKYO_R50_LONG TOKYO_R50_SHORT TOKYO_R30_DIR TOKYO_R30_LONG TOKYO_R30_SHORT TOKYO_LAND CMA_LAT CMA_LON CMA_CAT CMA_WIND CMA_PRES HKO_LAT HKO_LON HKO_CAT HKO_WIND HKO_PRES NEWDELHI_LAT NEWDELHI_LON NEWDELHI_GRADE NEWDELHI_WIND NEWDELHI_PRES NEWDELHI_CI NEWDELHI_DP NEWDELHI_POCI REUNION_LAT REUNION_LON REUNION_TYPE REUNION_WIND REUNION_PRES REUNION_TNUM REUNION_CI REUNION_RMW REUNION_R34_NE REUNION_R34_SE REUNION_R34_SW REUNION_R34_NW REUNION_R50_NE REUNION_R50_SE REUNION_R50_SW REUNION_R50_NW REUNION_R64_NE REUNION_R64_SE REUNION_R64_SW REUNION_R64_NW BOM_LAT BOM_LON BOM_TYPE BOM_WIND BOM_PRES BOM_TNUM BOM_CI BOM_RMW BOM_R34_NE BOM_R34_SE BOM_R34_SW BOM_R34_NW BOM_R50_NE BOM_R50_SE BOM_R50_SW BOM_R50_NW BOM_R64_NE BOM_R64_SE BOM_R64_SW BOM_R64_NW BOM_ROCI BOM_POCI BOM_EYE BOM_POS_METHOD BOM_PRES_METHOD NADI_LAT NADI_LON NADI_CAT NADI_WIND NADI_PRES WELLINGTON_LAT WELLINGTON_LON WELLINGTON_WIND WELLINGTON_PRES DS824_LAT DS824_LON DS824_STAGE DS824_WIND DS824_PRES TD9636_LAT TD9636_LON TD9636_STAGE TD9636_WIND TD9636_PRES TD9635_LAT TD9635_LON TD9635_WIND TD9635_PRES TD9635_ROCI NEUMANN_LAT NEUMANN_LON NEUMANN_CLASS NEUMANN_WIND NEUMANN_PRES MLC_LAT MLC_LON MLC_CLASS MLC_WIND MLC_PRES USA_GUST BOM_GUST BOM_GUST_PER REUNION_GUST REUNION_GUST_PER USA_SEAHGT USA_SEARAD_NE USA_SEARAD_SE USA_SEARAD_SW USA_SEARAD_NW STORM_SPEED STORM_DIR
1939240N19092 1939 56 NI BB NOT_NAMED 1939-08-28 00:00:00 TS 18.6000 91.5000 main 222 222 _________O____ -1 18.6000 91.5000 TC 30 8 279
1939240N19092 1939 56 NI BB NOT_NAMED 1939-08-28 03:00:00 TS 18.6569 91.1000 main 244 244 _________PO___ -1 18.6853 90.9000 TC 30 18.6000 91.5000 1 9 280
1939240N19092 1939 56 NI BB NOT_NAMED 1939-08-28 06:00:00 TS 18.7660 90.5192 main 285 285 _________OP___ -1 18.8000 90.3000 TC 30 18.7151 90.8479 1 11 283
1939240N19092 1939 56 NI BB NOT_NAMED 1939-08-28 09:00:00 TS 18.9156 89.9327 main 313 282 _________PP___ -1 18.9700 89.7125 TC 30 18.8430 90.2263 1 11 288
1939240N19092 1939 56 NI BB NOT_NAMED 1939-08-28 12:00:00 TS 19.0997 89.4333 main 281 257 _________OP___ -1 19.2000 89.2000 TC 30 18.9994 89.6665 1 10 296
1939240N19092 1939 56 NI BB NOT_NAMED 1939-08-28 15:00:00 TS 19.3386 89.0062 main 257 215 _________PO___ -1 19.4773 88.8123 TC 33 19.2000 89.2000 1 9 306
1939240N19092 1939 56 NI BB NOT_NAMED 1939-08-28 18:00:00 TS 19.6284 88.6712 main 215 171 _________OP___ -1 19.8000 88.5000 TC 37 19.4568 88.8425 1 8 316
1939240N19092 1939 56 NI BB NOT_NAMED 1939-08-28 21:00:00 TS 19.9462 88.3887 main 171 122 _________PP___ -1 20.1272 88.2295 TC 41 19.7653 88.5479 1 9 321
1939240N19092 1939 56 NI BB NOT_NAMED 1939-08-29 00:00:00 TS 20.3081 88.0773 main 122 72 _________OP___ -1 20.5000 87.9000 TC 45 20.1162 88.2545 1 10 318
1939240N19092 1939 56 NI BB NOT_NAMED 1939-08-29 03:00:00 TS 20.7213 87.6476 main 62 30 _________PO___ -1 20.9426 87.3951 TC 41 20.5000 87.9000 3 13 313
1939240N19092 1939 56 NI BB NOT_NAMED 1939-08-29 06:00:00 TS 21.1706 87.1033 main 23 0 _________OP___ -1 21.4000 86.8000 TC 37 20.9411 87.4065 3 14 311
1939240N19092 1939 56 NI BB NOT_NAMED 1939-08-29 09:00:00 TS 21.6200 86.5249 main 0 0 _________PP___ -1 21.8374 86.2075 TC 33 21.4027 86.8422 3 14 308
1939240N19092 1939 56 NI BB NOT_NAMED 1939-08-29 12:00:00 TS 22.0189 85.9158 main 0 0 _________OP___ -1 22.2000 85.6000 TC 30 21.8378 86.2315 3 13 302
1939240N19092 1939 56 NI BB NOT_NAMED 1939-08-29 15:00:00 TS 22.3223 85.3036 main 0 0 _________PO___ -1 22.4447 85.0071 TC 30 22.2000 85.6000 1 12 294
1939240N19092 1939 56 NI BB NOT_NAMED 1939-08-29 18:00:00 TS 22.5227 84.6819 main 0 0 _________OP___ -1 22.6000 84.4000 TC 30 22.4454 84.9638 1 12 286
1939240N19092 1939 56 NI BB NOT_NAMED 1939-08-29 21:00:00 TS 22.6677 84.0267 main 0 0 _________PP___ -1 22.7226 83.7349 TC 30 22.6128 84.3186 1 12 281
1939240N19092 1939 56 NI BB NOT_NAMED 1939-08-30 00:00:00 TS 22.7618 83.3946 main 0 0 _________OP___ -1 22.8000 83.1000 TC 30 22.7236 83.6892 1 11 278
1939240N19092 1939 56 NI BB NOT_NAMED 1939-08-30 03:00:00 TS 22.8286 82.8349 main 0 0 _________PO___ -1 22.8572 82.5699 TC 30 22.8000 83.1000 1 10 277
1939240N19092 1939 56 NI BB NOT_NAMED 1939-08-30 06:00:00 TS 22.8848 82.3364 main 0 0 _________OP___ -1 22.9000 82.1000 TC 30 22.8696 82.5728 1 9 276
1939240N19092 1939 56 NI BB NOT_NAMED 1939-08-30 09:00:00 TS 22.9280 81.8656 main 0 0 _________PP___ -1 22.9423 81.6424 TC 30 22.9138 82.0888 1 9 276
1939240N19092 1939 56 NI BB NOT_NAMED 1939-08-30 12:00:00 TS 22.9755 81.4177 main 0 0 _________OP___ -1 23.0000 81.2000 TC 30 22.9511 81.6355 1 8 278
1939240N19092 1939 56 NI BB NOT_NAMED 1939-08-30 15:00:00 TS 23.0462 80.9713 main 0 0 _________PO___ -1 23.0924 80.7425 TC 30 23.0000 81.2000 1 8 280
1939240N19092 1939 56 NI BB NOT_NAMED 1939-08-30 18:00:00 TS 23.1264 80.5219 main 0 0 _________OP___ -1 23.2000 80.3000 TC 30 23.0529 80.7439 1 8 281
1939240N19092 1939 56 NI BB NOT_NAMED 1939-08-30 21:00:00 TS 23.2010 80.0982 main 0 0 _________PP___ -1 23.2773 79.8922 TC 30 23.1247 80.3042 1 8 284
1939240N19092 1939 56 NI BB NOT_NAMED 1939-08-31 00:00:00 TS 23.3171 79.6937 main 0 0 _________OP___ -1 23.4000 79.5000 TC 30 23.2342 79.8875 1 8 292
1939240N19092 1939 56 NI BB NOT_NAMED 1939-08-31 03:00:00 TS 23.5063 79.2888 main 0 0 _________PO___ -1 23.6125 79.0776 TC 30 23.4000 79.5000 1 9 301
1939240N19092 1939 56 NI BB NOT_NAMED 1939-08-31 06:00:00 TS 23.7652 78.8952 main 0 0 _________OP___ -1 23.9000 78.7000 TC 30 23.6303 79.0904 1 9 310
1939240N19092 1939 56 NI BB NOT_NAMED 1939-08-31 09:00:00 TS 24.0763 78.5571 main 0 0 _________PP___ -1 24.2349 78.3976 TC 30 23.9176 78.7166 1 9 321
1939240N19092 1939 56 NI BB NOT_NAMED 1939-08-31 12:00:00 TS 24.4230 78.3046 main 0 0 _________OP___ -1 24.6000 78.2000 TC 30 24.2461 78.4093 1 8 332
1939240N19092 1939 56 NI BB NOT_NAMED 1939-08-31 15:00:00 TS 24.7712 78.1487 main 0 0 _________PO___ -1 24.9424 78.0974 TC 30 24.6000 78.2000 1 7 345
1939240N19092 1939 56 NI BB NOT_NAMED 1939-08-31 18:00:00 TS 25.1092 78.1057 main 0 0 _________OP___ -1 25.3000 78.1000 TC 30 24.9661 78.1100 1 7 359
1939240N19092 1939 56 NI BB NOT_NAMED 1939-08-31 21:00:00 TS 25.4799 78.1428 main 0 0 _________PP___ -1 25.6901 78.1798 TC 30 25.3399 78.1181 1 7 9
1939240N19092 1939 56 NI BB NOT_NAMED 1939-09-01 00:00:00 TS 25.8458 78.2282 main 0 0 _________OP___ -1 26.1000 78.3000 TC 30 25.7187 78.1923 1 6 13
1939240N19092 1939 56 NI BB NOT_NAMED 1939-09-01 03:00:00 NR 26.1000 78.3000 main 0 __________O___ -1 TC 26.1000 78.3000 1 5 14

About IBTrACS Database

This database is a web-friendly format of International Best Track Archive for Climate Stewardship (IBTrACS), a global best track data archive curated by NOAA dating back to 1842.

Updated: 2021-12-03